Time;durP1;ratioP1;P1;durP2;ratioP2;P2;SDS_P1;SDS_P2;PMS_P1;PMS_P2;Temp;Humidity;BMP_temperature;BMP_pressure;BME280_temperature;BME280_humidity;BME280_pressure;Samples;Min_cycle;Max_cycle;Signal;HPM_P1;HPM_P2
2021/04/20 00:20:20;;;;;;;8.23;6.58;;;;;;;16.83;38.59;100060.34;2439554;81;25392;-84
2021/04/20 00:35:03;;;;;;;8.78;6.20;;;;;;;16.78;38.91;100047.67;2494953;78;31383;-80
2021/04/20 00:39:03;;;;;;;9.10;5.35;;;;;;;16.75;38.75;100049.42;2461343;80;25622;-77
2021/04/20 01:12:30;;;;;;;;;;;;;;;;;;;;;
2021/04/20 01:20:45;;;;;;;4.80;3.42;;;;;;;16.39;38.55;100041.27;2283010;85;25348;-86
2021/04/20 01:25:19;;;;;;;3.65;3.30;;;;;;;16.32;38.61;100042.20;2159742;88;25820;-83
2021/04/20 01:44:45;;;;;;;;;;;;;;;;;;;;;
2021/04/20 01:59:06;;;;;;;5.08;3.27;;;;;;;16.03;39.23;100037.06;2460628;78;30871;-85
2021/04/20 02:03:22;;;;;;;5.20;4.03;;;;;;;15.93;39.23;100036.25;2332308;82;32955;-86
2021/04/20 02:12:21;;;;;;;7.58;4.00;;;;;;;15.89;39.43;100031.86;2575496;76;30836;-81
2021/04/20 02:16:03;;;;;;;6.50;3.77;;;;;;;15.79;39.38;100031.45;2461483;80;25460;-77
2021/04/20 02:50:26;;;;;;;8.83;5.22;;;;;;;15.30;40.80;100019.30;2565389;74;30817;-82
2021/04/20 02:54:48;;;;;;;7.47;5.75;;;;;;;15.27;40.99;100028.92;2597502;75;31224;-75
2021/04/20 02:59:19;;;;;;;6.75;5.42;;;;;;;15.21;41.01;100026.30;2553614;77;25479;-88
2021/04/20 03:03:52;;;;;;;8.88;6.15;;;;;;;15.17;41.17;100020.18;2548863;77;25688;-80
2021/04/20 03:22:33;;;;;;;10.93;5.53;;;;;;;15.01;41.65;100007.93;2400962;81;30880;-85
2021/04/20 03:41:41;;;;;;;8.55;6.62;;;;;;;14.79;42.19;100005.77;2501904;77;31046;-89
2021/04/20 04:16:37;;;;;;;12.80;7.92;;;;;;;14.53;43.09;100003.98;2425367;77;29615;-81
2021/04/20 04:20:53;;;;;;;15.40;6.00;;;;;;;14.53;43.09;100003.98;2197042;88;25653;-79
2021/04/20 04:29:58;;;;;;;;;;;;;;;;;;;;;
2021/04/20 04:44:49;;;;;;;13.35;6.33;;;;;;;14.71;43.09;100005.73;2509171;78;30811;-76
2021/04/20 04:57:41;;;;;;;16.70;5.95;;;;;;;15.04;43.40;100007.49;2485630;78;30239;-77
2021/04/20 05:01:48;;;;;;;13.68;5.97;;;;;;;15.64;42.90;100012.65;2351616;83;25737;-80
2021/04/20 05:46:27;;;;;;;7.95;4.45;;;;;;;16.05;41.46;100016.46;2430296;79;31003;-77
2021/04/20 06:01:08;;;;;;;4.92;3.92;;;;;;;16.30;40.98;100018.98;2471662;78;32065;-78
2021/04/20 06:04:51;;;;;;;7.10;3.92;;;;;;;16.31;40.91;100019.41;2430437;81;25847;-84
2021/04/20 06:08:29;;;;;;;9.65;4.72;;;;;;;16.42;40.72;100023.30;2426012;79;25735;-87
2021/04/20 06:12:38;;;;;;;4.62;3.30;;;;;;;16.48;40.62;100018.86;2438845;78;25769;-77
2021/04/20 06:16:51;;;;;;;14.03;5.45;;;;;;;16.58;40.46;100014.88;2426153;78;25430;-80
2021/04/20 06:20:45;;;;;;;6.00;3.72;;;;;;;16.68;40.28;100009.52;2429001;78;25729;-81
2021/04/20 06:51:22;;;;;;;3.42;2.20;;;;;;;29.67;26.27;100023.94;2515198;77;25768;-78
2021/04/20 07:10:49;;;;;;;1.85;1.50;;;;;;;35.04;21.17;100035.95;2606581;76;26806;-93
2021/04/20 07:47:23;;;;;;;;;;;;;;;;;;;;;
2021/04/20 08:02:01;;;;;;;1.35;1.02;;;;;;;38.04;21.20;100032.42;2446345;79;25583;-81
2021/04/20 08:05:36;;;;;;;1.40;1.20;;;;;;;37.69;21.77;100022.18;2429289;81;25622;-79
2021/04/20 08:09:23;;;;;;;1.60;1.42;;;;;;;37.55;22.04;100028.44;2393651;81;25802;-82
2021/04/20 08:17:29;;;;;;;2.05;1.25;;;;;;;37.45;22.41;100016.72;2605918;75;25611;-82
2021/04/20 08:21:26;;;;;;;;;;;;;;;;;;;;;
2021/04/20 08:25:28;;;;;;;2.25;1.60;;;;;;;36.11;23.72;100015.86;2456457;80;25708;-78
2021/04/20 08:29:42;;;;;;;4.03;1.40;;;;;;;35.84;24.25;100010.97;2462271;80;25653;-86
2021/04/20 08:33:27;;;;;;;1.70;1.17;;;;;;;35.98;24.63;100011.61;2442549;80;25765;-83
2021/04/20 08:37:30;;;;;;;1.37;1.27;;;;;;;36.13;24.73;100011.14;2331586;83;25820;-84
2021/04/20 08:41:12;;;;;;;1.55;1.45;;;;;;;36.28;24.87;100002.61;2384456;81;25781;-81
2021/04/20 08:45:15;;;;;;;1.70;1.30;;;;;;;36.58;24.96;100000.36;2443787;79;25610;-79
2021/04/20 08:54:09;;;;;;;1.52;1.27;;;;;;;36.57;25.29;99994.07;2316044;84;25268;-82
2021/04/20 08:58:22;;;;;;;1.52;1.12;;;;;;;37.54;24.99;99990.02;2298941;85;25409;-81
2021/04/20 09:02:54;;;;;;;1.82;1.45;;;;;;;38.35;24.57;99985.84;2292789;85;25568;-85
2021/04/20 09:07:23;;;;;;;;;;;;;;;;;;;;;
2021/04/20 09:11:10;;;;;;;2.52;1.30;;;;;;;38.76;24.32;99992.61;2221037;88;25722;-83
2021/04/20 09:14:50;;;;;;;4.45;1.82;;;;;;;39.13;24.54;99986.16;2154134;90;25667;-76
2021/04/20 09:18:37;;;;;;;2.05;1.87;;;;;;;39.93;20.98;99995.11;2173118;90;25802;-76
2021/04/20 09:22:53;;;;;;;7.85;2.10;;;;;;;39.42;17.82;99984.52;2471012;79;28068;-76
2021/04/20 09:26:52;;;;;;;3.75;1.62;;;;;;;39.09;16.92;99978.80;2232486;88;25655;-74
2021/04/20 09:41:30;;;;;;;4.12;2.20;;;;;;;34.81;17.51;99951.69;2551347;77;25079;-78
2021/04/20 09:45:36;;;;;;;2.40;2.20;;;;;;;35.22;17.70;99950.88;2482832;78;25731;-76
2021/04/20 09:49:44;;;;;;;3.35;2.27;;;;;;;35.42;17.34;99957.28;2397214;82;25954;-76
2021/04/20 09:53:39;;;;;;;7.40;2.20;;;;;;;35.93;17.09;99949.13;2376913;82;25620;-76
2021/04/20 09:57:10;;;;;;;6.25;2.00;;;;;;;35.68;16.99;99953.17;2433335;80;25482;-78
2021/04/20 10:00:43;;;;;;;3.33;2.22;;;;;;;36.14;16.79;99950.94;2417310;81;25591;-78
2021/04/20 10:04:49;;;;;;;3.52;2.50;;;;;;;36.58;16.41;99944.69;2190739;88;25621;-77
2021/04/20 10:09:01;;;;;;;4.10;2.42;;;;;;;36.81;16.04;99934.41;2269185;85;25986;-75
2021/04/20 10:12:51;;;;;;;6.17;2.60;;;;;;;36.71;15.69;99934.41;2283485;86;25585;-77
2021/04/20 10:16:43;;;;;;;3.17;2.87;;;;;;;36.46;15.43;99925.44;2269059;84;26390;-78
2021/04/20 10:20:53;;;;;;;9.85;2.52;;;;;;;35.00;15.25;99924.76;2285737;84;25791;-76
2021/04/20 10:28:04;;;;;;;;;;;;;;;34.23;17.26;99908.67;2335716;82;25420;-82
2021/04/20 10:36:35;;;;;;;20.75;3.70;;;;;;;34.07;16.80;99905.00;2573804;76;25529;-81
2021/04/20 10:40:49;;;;;;;;;;;;;;;;;;;;;
2021/04/20 10:45:02;;;;;;;7.30;3.30;;;;;;;32.56;17.48;99890.24;2471515;78;31011;-77
2021/04/20 10:48:40;;;;;;;4.40;3.12;;;;;;;32.31;17.75;99891.70;2459212;80;25671;-78
2021/04/20 10:52:19;;;;;;;4.28;3.25;;;;;;;31.53;17.43;99883.91;2428834;80;25631;-77
2021/04/20 10:56:13;;;;;;;5.35;3.20;;;;;;;30.45;17.23;99878.30;2426981;80;25711;-78
2021/04/20 10:59:54;;;;;;;3.50;3.20;;;;;;;29.60;17.77;99869.48;2405309;80;25646;-78
2021/04/20 11:03:40;;;;;;;7.08;3.22;;;;;;;29.09;18.65;99874.39;2428419;80;25655;-77
2021/04/20 11:07:42;;;;;;;3.15;2.83;;;;;;;28.83;18.64;99867.44;2413081;80;25690;-78
2021/04/20 11:11:26;;;;;;;3.83;3.00;;;;;;;29.06;19.15;99865.19;2401248;81;25847;-77
2021/04/20 11:15:01;;;;;;;4.15;3.10;;;;;;;29.05;19.69;99866.16;2353958;82;25578;-77
2021/04/20 11:18:39;;;;;;;4.75;3.52;;;;;;;28.81;19.86;99864.45;2350603;83;25803;-77
2021/04/20 11:22:10;;;;;;;8.00;3.05;;;;;;;28.90;20.17;99851.83;2393877;80;25428;-78
2021/04/20 11:25:45;;;;;;;5.25;3.45;;;;;;;29.37;20.31;99845.38;2405621;80;25481;-77
2021/04/20 11:29:14;;;;;;;4.92;3.05;;;;;;;29.70;20.04;99836.14;2401998;81;25432;-77
2021/04/20 11:32:48;;;;;;;4.20;3.60;;;;;;;29.67;19.68;99836.34;2327582;82;25939;-77
2021/04/20 11:36:25;;;;;;;3.92;3.33;;;;;;;29.44;19.68;99836.45;2405512;81;25468;-78
2021/04/20 11:40:18;;;;;;;7.10;3.58;;;;;;;29.19;19.91;99832.60;2402812;81;26115;-78
2021/04/20 11:44:12;;;;;;;8.20;3.22;;;;;;;28.98;20.22;99829.41;2326057;84;25666;-78
2021/04/20 11:48:22;;;;;;;5.72;3.20;;;;;;;28.80;20.40;99828.72;2390709;81;25838;-77
2021/04/20 11:51:52;;;;;;;4.22;3.83;;;;;;;28.62;20.55;99816.40;2411192;80;25711;-77
2021/04/20 11:55:22;;;;;;;3.80;3.50;;;;;;;28.30;20.48;99811.12;2363145;81;26002;-77
2021/04/20 11:58:54;;;;;;;4.10;2.87;;;;;;;28.11;20.78;99814.47;2318054;83;25710;-78
2021/04/20 12:02:33;;;;;;;5.15;3.27;;;;;;;28.04;21.00;99813.11;2326408;83;25432;-76
2021/04/20 12:05:59;;;;;;;4.83;3.67;;;;;;;28.21;21.03;99802.27;2357236;83;25891;-77
2021/04/20 12:10:00;;;;;;;7.83;3.45;;;;;;;28.45;20.74;99804.00;2357274;82;25863;-82
2021/04/20 12:13:46;;;;;;;4.67;3.42;;;;;;;28.29;20.62;99802.70;2399899;81;25688;-78
2021/04/20 12:17:08;;;;;;;9.23;3.37;;;;;;;27.95;20.70;99790.41;2384285;82;25377;-78
2021/04/20 12:20:40;;;;;;;12.45;3.52;;;;;;;27.53;20.82;99786.01;2429989;80;25883;-78
2021/04/20 12:24:11;;;;;;;6.25;3.25;;;;;;;27.17;20.62;99788.93;2347302;82;25749;-79
2021/04/20 12:29:13;;;;;;;6.25;3.05;;;;;;;26.77;20.65;99783.00;2552358;77;25603;-79
2021/04/20 12:32:40;;;;;;;4.58;3.12;;;;;;;26.57;21.07;99783.19;2481265;79;26061;-79
2021/04/20 12:36:40;;;;;;;7.70;3.67;;;;;;;26.73;21.47;99786.80;2443726;80;25650;-79
2021/04/20 12:40:40;;;;;;;;;;;;;;;;;;;;;
2021/04/20 12:55:44;;;;;;;2.98;2.67;;;;;;;27.50;22.82;99762.56;2603965;76;26893;-77
2021/04/20 12:59:21;;;;;;;;;;;;;;;;;;;;;
2021/04/20 13:02:42;;;;;;;6.20;2.87;;;;;;;27.94;23.59;99760.05;2513422;78;25252;-81
2021/04/20 13:06:23;;;;;;;4.65;2.10;;;;;;;28.35;23.35;99762.13;2427383;80;25663;-82
2021/04/20 13:09:44;;;;;;;3.70;2.08;;;;;;;28.50;23.00;99763.04;2513167;78;25193;-80
2021/04/20 13:13:12;;;;;;;3.17;2.27;;;;;;;28.49;22.76;99755.97;2468323;79;25585;-80
2021/04/20 13:16:35;;;;;;;5.15;2.65;;;;;;;28.43;22.62;99754.98;2466347;80;25676;-81
2021/04/20 13:20:21;;;;;;;2.20;2.00;;;;;;;28.33;22.49;99755.13;2513124;78;25583;-82
2021/04/20 13:23:54;;;;;;;3.90;2.10;;;;;;;28.22;22.37;99755.77;2467257;80;25695;-78
2021/04/20 13:27:29;;;;;;;2.62;2.42;;;;;;;28.08;22.18;99754.36;2509731;78;25704;-79
2021/04/20 13:31:02;;;;;;;3.83;2.20;;;;;;;27.88;22.22;99759.57;2512260;77;25512;-78
2021/04/20 13:34:29;;;;;;;5.42;2.47;;;;;;;27.61;22.48;99753.92;2517415;77;25967;-78
2021/04/20 13:38:01;;;;;;;3.42;2.55;;;;;;;27.40;22.82;99754.66;2517496;78;25638;-80
2021/04/20 13:45:14;;;;;;;8.80;2.80;;;;;;;26.96;23.34;99756.12;2424511;81;25565;-75
2021/04/20 13:49:33;;;;;;;4.60;2.05;;;;;;;26.76;23.60;99754.98;2398293;80;25789;-78
2021/04/20 14:19:29;;;;;;;11.00;2.40;;;;;;;26.16;27.15;99742.53;2453313;77;25547;-84
2021/04/20 14:23:21;;;;;;;10.48;2.58;;;;;;;26.10;27.34;99747.70;2306539;82;25911;-85
2021/04/20 15:08:58;;;;;;;3.22;2.72;;;;;;;25.53;28.04;99730.92;2499960;78;25626;-83
2021/04/20 15:13:04;;;;;;;6.62;4.17;;;;;;;25.42;28.39;99736.31;2347166;81;26111;-81
2021/04/20 15:17:33;;;;;;;5.00;2.30;;;;;;;25.41;29.37;99734.59;2533156;77;35034;-80
2021/04/20 15:21:50;;;;;;;;;;;;;;;;;;;;;
2021/04/20 15:25:51;;;;;;;7.42;2.55;;;;;;;25.50;29.06;99729.73;2508658;76;25682;-82
2021/04/20 15:30:48;;;;;;;;;;;;;;;;;;;;;
2021/04/20 15:34:25;;;;;;;;;;;;;;;;;;;;;
2021/04/20 15:52:52;;;;;;;6.97;2.57;;;;;;;24.99;30.17;99726.75;2526710;77;30909;-79
2021/04/20 15:57:16;;;;;;;8.78;2.40;;;;;;;25.08;30.36;99730.81;2511671;78;26248;-82
2021/04/20 16:01:21;;;;;;;11.68;2.33;;;;;;;25.10;30.55;99728.92;2244162;87;25536;-83
2021/04/20 16:05:43;;;;;;;2.85;2.58;;;;;;;24.99;30.87;99725.42;2502005;77;27402;-82
2021/04/20 16:09:38;;;;;;;3.27;1.85;;;;;;;24.89;30.97;99732.11;2431661;80;25415;-82
2021/04/20 16:13:22;;;;;;;3.58;1.80;;;;;;;24.83;31.16;99731.91;2441114;80;25571;-81
2021/04/20 16:21:00;;;;;;;4.75;1.72;;;;;;;24.75;31.37;99722.08;2421443;81;25255;-79
2021/04/20 16:35:26;;;;;;;;;;;;;;;;;;;;;
2021/04/20 16:39:58;;;;;;;;;;;;;;;;;;;;;
2021/04/20 16:44:25;;;;;;;26.33;4.58;;;;;;;22.77;28.56;99685.39;2300918;82;25876;-74
2021/04/20 17:05:12;;;;;;;3.62;2.92;;;;;;;21.92;29.18;99691.48;2429965;79;25708;-79
2021/04/20 17:23:13;;;;;;;6.40;2.90;;;;;;;22.09;29.85;99682.95;2580697;76;30396;-78
2021/04/20 17:32:18;;;;;;;3.00;2.45;;;;;;;22.26;30.40;99687.70;2581907;75;31435;-77
2021/04/20 17:36:13;;;;;;;;;;;;;;;;;;;;;
2021/04/20 17:44:24;;;;;;;7.17;2.20;;;;;;;22.01;31.20;99701.80;2449880;79;25954;-81
2021/04/20 17:53:16;;;;;;;2.72;2.08;;;;;;;21.92;32.00;99713.58;2553570;77;30860;-80
2021/04/20 17:57:19;;;;;;;;;;;;;;;;;;;;;
2021/04/20 18:01:18;;;;;;;3.58;3.27;;;;;;;21.78;32.48;99714.50;2604312;75;30905;-80
2021/04/20 18:10:35;;;;;;;9.90;4.65;;;;;;;21.29;32.76;99720.47;2425902;81;25708;-79
2021/04/20 18:15:18;;;;;;;4.58;4.00;;;;;;;21.02;33.21;99721.71;2552531;77;31044;-80
2021/04/20 18:24:10;;;;;;;9.65;4.15;;;;;;;20.60;33.66;99726.48;2257945;86;26049;-80
2021/04/20 18:29:01;;;;;;;6.45;4.08;;;;;;;20.39;34.14;99723.48;2128616;92;25933;-80
2021/04/20 18:33:15;;;;;;;4.87;4.28;;;;;;;20.26;34.36;99730.88;2027460;96;25936;-77
2021/04/20 18:38:02;;;;;;;7.35;4.60;;;;;;;20.14;34.73;99731.19;2020977;96;26296;-81
2021/04/20 19:04:27;;;;;;;;;;;;;;;;;;;;;
2021/04/20 19:09:22;;;;;;;6.65;5.75;;;;;;;19.48;36.94;99749.97;2534652;77;30856;-78
2021/04/20 19:18:34;;;;;;;7.12;5.95;;;;;;;19.13;36.63;99751.19;2515071;77;30826;-82
2021/04/20 19:22:19;;;;;;;6.33;5.40;;;;;;;18.93;36.61;99760.39;2478880;78;25388;-83
2021/04/20 19:25:57;;;;;;;7.15;5.83;;;;;;;18.82;36.75;99759.30;2475630;78;25691;-80
2021/04/20 19:29:55;;;;;;;10.15;6.70;;;;;;;18.72;36.81;99751.59;2456808;78;25630;-81
2021/04/20 19:33:52;;;;;;;7.87;6.00;;;;;;;18.60;36.93;99745.63;2379812;81;25749;-75
2021/04/20 19:58:03;;;;;;;9.80;5.60;;;;;;;17.87;38.22;99735.94;2616393;74;30861;-80
2021/04/20 20:01:44;;;;;;;8.28;6.00;;;;;;;17.77;38.09;99730.84;2586642;76;25546;-80
2021/04/20 20:05:20;;;;;;;8.58;5.45;;;;;;;17.62;38.51;99720.95;2561997;77;25720;-80
2021/04/20 20:09:25;;;;;;;10.18;5.53;;;;;;;17.62;38.51;99720.95;2508415;78;25701;-83
2021/04/20 20:18:02;;;;;;;6.70;5.75;;;;;;;17.44;39.11;99715.48;2554505;77;31114;-81
2021/04/20 20:22:05;;;;;;;6.92;5.55;;;;;;;17.33;39.09;99710.83;2356519;83;25467;-82
2021/04/20 20:56:56;;;;;;;;;;;;;;;;;;;;;
2021/04/20 21:15:55;;;;;;;;;;;;;;;;;;;;;
2021/04/20 21:24:50;;;;;;;15.08;7.22;;;;;;;16.56;41.29;99652.17;2292100;84;26018;-79
2021/04/20 21:28:41;;;;;;;8.43;7.25;;;;;;;16.48;41.72;99644.38;2592212;76;31228;-78
2021/04/20 21:46:42;;;;;;;7.75;7.03;;;;;;;16.16;42.09;99644.73;2214505;89;25427;-78
2021/04/20 21:50:44;;;;;;;8.00;6.75;;;;;;;16.15;42.63;99650.89;2493684;77;30904;-81
2021/04/20 21:54:15;;;;;;;9.95;7.78;;;;;;;16.04;42.54;99655.83;2405458;81;25817;-79
2021/04/20 21:57:41;;;;;;;7.00;6.33;;;;;;;15.95;42.85;99657.67;2405697;82;35132;-75
2021/04/20 22:20:53;;;;;;;11.30;6.95;;;;;;;15.78;43.37;99652.13;2514869;77;25884;-75
2021/04/20 22:35:19;;;;;;;9.08;7.05;;;;;;;15.77;43.27;99654.34;2306213;83;30717;-79
2021/04/20 22:39:51;;;;;;;10.80;7.58;;;;;;;15.75;43.34;99652.59;2510258;77;30710;-79
2021/04/20 22:43:38;;;;;;;10.38;7.53;;;;;;;15.72;43.19;99652.63;2612539;75;25182;-78
2021/04/20 22:53:44;;;;;;;8.90;7.20;;;;;;;15.77;42.92;99649.08;2515106;77;31187;-77
2021/04/20 22:57:48;;;;;;;6.72;6.10;;;;;;;15.73;42.91;99643.87;2469968;80;25591;-78
2021/04/20 23:01:46;;;;;;;6.80;6.17;;;;;;;15.74;42.80;99645.61;2466142;78;25379;-78
2021/04/20 23:36:12;;;;;;;8.33;7.40;;;;;;;15.70;43.15;99626.38;2399400;80;31279;-76
2021/04/20 23:39:50;;;;;;;8.70;7.47;;;;;;;15.61;42.99;99620.30;2392892;81;25742;-76
2021/04/20 23:43:37;;;;;;;;;;;;;;;;;;;;;
2021/04/20 23:47:38;;;;;;;13.73;9.97;;;;;;;15.67;43.45;99614.58;2525232;77;27718;-77
2021/04/20 23:51:23;;;;;;;10.45;8.70;;;;;;;15.81;43.45;99607.88;2497270;79;25718;-77
2021/04/20 23:55:00;;;;;;;;;;;;;;;15.84;43.60;99606.53;2480859;77;25633;-78
2021/04/20 23:58:28;;;;;;;10.20;9.00;;;;;;;15.80;43.74;99603.52;2505811;79;25547;-78
